Terminal Aerodrome Forecast
Issued by NWS

Home | Current Version | Previous Version | Text Only | Print | Product List | Glossary On
Versions: 1 2 3 4 5 6 7 8 9 10 11 12 13 14 15 16 17 18 19 20 21 22 23 24 25 26
000
FTUS43 KGLD 231130
TAFMCK
TAF
KMCK 231130Z 2312/2412 34025G35KT P6SM VCSH SCT050 OVC080
     FM231800 31028G38KT P6SM SCT040 BKN120
     FM240000 31020G28KT P6SM SCT200
     FM240600 31016G24KT P6SM BKN040=

USA.gov is the U.S. government's official web portal to all federal, state and local government web resources and services.